createdAt,value
2018-09-03T00:00:31.541Z,20.27
2018-09-03T00:02:58.706Z,19.80
2018-09-03T00:05:25.880Z,20.97
2018-09-03T00:07:53.039Z,21.47
2018-09-03T00:10:20.182Z,21.03
2018-09-03T00:12:47.288Z,21.13
2018-09-03T00:15:14.424Z,19.43
2018-09-03T00:17:41.559Z,20.80
2018-09-03T00:20:08.713Z,19.93
2018-09-03T00:22:35.851Z,20.47
2018-09-03T00:25:03.039Z,20.27
2018-09-03T00:27:30.198Z,21.97
2018-09-03T00:29:57.321Z,22.13
2018-09-03T00:32:30.172Z,21.67
2018-09-03T00:35:03.124Z,20.83
2018-09-03T00:37:35.913Z,19.97
2018-09-03T00:40:08.787Z,21.63
2018-09-03T00:42:41.817Z,21.27
2018-09-03T00:45:14.804Z,20.63
2018-09-03T00:47:41.904Z,20.70
2018-09-03T00:50:09.081Z,20.33
2018-09-03T00:52:36.182Z,20.77
2018-09-03T00:55:03.413Z,21.30
2018-09-03T00:57:30.795Z,21.57
2018-09-03T00:59:57.909Z,21.50
2018-09-03T01:02:25.054Z,21.33
2018-09-03T01:04:52.190Z,20.40
2018-09-03T01:07:19.379Z,20.83
2018-09-03T01:09:46.541Z,21.83
2018-09-03T01:12:13.653Z,19.07
2018-09-03T01:14:40.809Z,21.47
2018-09-03T01:17:07.924Z,21.77
2018-09-03T01:19:35.073Z,20.93
2018-09-03T01:22:02.193Z,19.67
2018-09-03T01:24:29.318Z,20.47
2018-09-03T01:26:56.429Z,21.40
2018-09-03T01:29:23.562Z,19.17
2018-09-03T01:31:54.092Z,20.90
2018-09-03T01:34:21.381Z,21.77
2018-09-03T01:36:48.532Z,20.83
2018-09-03T01:39:15.640Z,20.60
2018-09-03T01:41:42.782Z,21.53
2018-09-03T01:44:09.895Z,21.23
2018-09-03T01:46:37.028Z,21.77
2018-09-03T01:49:04.194Z,21.83
2018-09-03T01:51:31.332Z,20.87
2018-09-03T01:53:58.516Z,21.83
2018-09-03T01:56:25.649Z,21.93
2018-09-03T01:58:53.127Z,21.97
2018-09-03T02:01:20.480Z,22.23
2018-09-03T02:03:47.605Z,22.20
2018-09-03T02:06:14.755Z,23.07
2018-09-03T02:08:41.906Z,20.73
2018-09-03T02:11:09.055Z,22.63
2018-09-03T02:13:36.246Z,21.93
2018-09-03T02:16:03.551Z,21.33
2018-09-03T02:18:30.719Z,20.23
2018-09-03T02:20:57.914Z,21.90
2018-09-03T02:23:25.064Z,21.87
2018-09-03T02:25:52.200Z,22.20
2018-09-03T02:28:19.345Z,21.33
2018-09-03T02:30:46.484Z,20.60
2018-09-03T02:33:13.610Z,22.60
2018-09-03T02:35:40.772Z,21.97
2018-09-03T02:38:08.064Z,21.93
2018-09-03T02:40:35.220Z,21.80
2018-09-03T02:43:02.369Z,20.00
2018-09-03T02:45:29.532Z,21.77
2018-09-03T02:47:56.686Z,22.73
2018-09-03T02:50:23.837Z,21.53
2018-09-03T02:52:51.000Z,20.73
2018-09-03T02:55:18.148Z,23.20
2018-09-03T02:57:45.292Z,21.77
2018-09-03T03:00:12.720Z,22.10
2018-09-03T03:02:39.877Z,22.30
2018-09-03T03:05:07.056Z,22.67
2018-09-03T03:07:34.241Z,22.67
2018-09-03T03:10:01.437Z,21.53
2018-09-03T03:12:28.592Z,22.70
2018-09-03T03:14:56.753Z,23.50
2018-09-03T03:17:24.081Z,20.60
2018-09-03T03:19:51.235Z,21.93
2018-09-03T03:22:18.885Z,21.80
2018-09-03T03:24:46.886Z,21.70
2018-09-03T03:27:14.509Z,22.00
2018-09-03T03:29:41.679Z,22.87
2018-09-03T03:32:08.858Z,22.57
2018-09-03T03:34:36.021Z,23.27
2018-09-03T03:37:03.196Z,21.77
2018-09-03T03:39:30.353Z,22.73
2018-09-03T03:42:00.241Z,22.90
2018-09-03T03:44:27.380Z,22.10
2018-09-03T03:46:54.548Z,22.77
2018-09-03T03:49:21.728Z,23.93
2018-09-03T03:51:48.892Z,23.03
2018-09-03T03:54:16.031Z,23.97
2018-09-03T03:56:43.233Z,24.07
2018-09-03T03:59:10.373Z,22.93
2018-09-03T04:01:37.516Z,23.53
2018-09-03T04:04:04.911Z,22.80
2018-09-03T04:06:32.063Z,23.93
2018-09-03T04:08:59.439Z,22.93
2018-09-03T04:11:26.607Z,24.13
2018-09-03T04:13:53.729Z,24.77
2018-09-03T04:16:20.888Z,24.60
2018-09-03T04:18:48.032Z,24.40
2018-09-03T04:21:15.237Z,24.20
2018-09-03T04:23:42.389Z,21.90
2018-09-03T04:26:09.516Z,23.77
2018-09-03T04:28:36.690Z,24.17
2018-09-03T04:31:04.066Z,24.23
2018-09-03T04:33:31.216Z,25.13
2018-09-03T04:35:58.396Z,24.17
2018-09-03T04:38:25.516Z,24.30
2018-09-03T04:40:52.669Z,25.00
2018-09-03T04:43:19.782Z,24.70
2018-09-03T04:45:46.968Z,26.20
2018-09-03T04:48:14.276Z,25.20
2018-09-03T04:50:41.279Z,25.80
2018-09-03T04:53:08.420Z,25.00
2018-09-03T04:55:35.553Z,24.50
2018-09-03T04:58:02.721Z,26.73
2018-09-03T05:00:29.888Z,27.17
2018-09-03T05:02:57.032Z,27.60
2018-09-03T05:05:24.221Z,29.20
2018-09-03T05:07:51.299Z,28.13
2018-09-03T05:10:18.466Z,28.27
2018-09-03T05:12:45.653Z,27.63
2018-09-03T05:15:12.827Z,27.03
2018-09-03T05:17:39.961Z,24.50
2018-09-03T05:20:07.111Z,24.00
2018-09-03T05:22:34.245Z,23.87
2018-09-03T05:25:01.397Z,24.73
2018-09-03T05:27:28.560Z,24.50
2018-09-03T05:29:55.716Z,24.27
2018-09-03T05:32:22.887Z,24.77
2018-09-03T05:34:50.009Z,22.83
2018-09-03T05:37:17.181Z,21.93
2018-09-03T05:39:44.324Z,22.67
2018-09-03T05:42:11.456Z,23.33
2018-09-03T05:44:38.602Z,22.97
2018-09-03T05:47:05.797Z,23.07
2018-09-03T05:49:33.111Z,21.33
2018-09-03T05:52:00.268Z,22.47
2018-09-03T05:54:27.387Z,20.97
2018-09-03T05:56:54.567Z,22.03
2018-09-03T05:59:21.719Z,21.30
2018-09-03T06:01:48.921Z,22.30
2018-09-03T06:04:16.089Z,20.27
2018-09-03T06:06:43.245Z,21.30
2018-09-03T06:09:11.484Z,21.23
2018-09-03T06:11:38.796Z,22.30
2018-09-03T06:14:05.972Z,21.47
2018-09-03T06:16:33.184Z,21.10
2018-09-03T06:19:00.457Z,20.03
2018-09-03T06:21:27.593Z,21.13
2018-09-03T06:23:54.757Z,21.80
2018-09-03T06:26:21.938Z,22.57
2018-09-03T06:28:49.118Z,20.57
2018-09-03T06:31:16.295Z,21.30
2018-09-03T06:33:43.436Z,20.80
2018-09-03T06:36:10.596Z,21.30
2018-09-03T06:38:37.769Z,22.97
2018-09-03T06:41:05.120Z,20.68
2018-09-03T06:43:32.296Z,21.67
2018-09-03T06:45:59.491Z,21.30
2018-09-03T06:48:26.767Z,21.60
2018-09-03T06:50:53.941Z,20.75
2018-09-03T06:53:21.125Z,21.35
2018-09-03T06:55:48.283Z,22.47
2018-09-03T06:58:15.431Z,22.27
2018-09-03T07:00:42.590Z,22.10
2018-09-03T07:03:09.721Z,21.17
2018-09-03T07:05:36.868Z,21.23
2018-09-03T07:08:04.248Z,21.87
2018-09-03T07:10:31.377Z,21.50
2018-09-03T07:13:01.272Z,19.07
2018-09-03T07:15:28.456Z,19.23
2018-09-03T07:17:55.605Z,20.80
2018-09-03T07:20:23.134Z,20.90
2018-09-03T07:22:50.261Z,20.57
2018-09-03T07:25:17.426Z,22.75
2018-09-03T07:27:44.581Z,20.88
2018-09-03T07:30:11.748Z,20.37
2018-09-03T07:32:38.899Z,21.57
2018-09-03T07:35:06.042Z,21.35
2018-09-03T07:37:33.176Z,20.72
2018-09-03T07:40:00.358Z,19.70
2018-09-03T07:42:27.524Z,20.12
2018-09-03T07:44:54.683Z,20.02
2018-09-03T07:47:21.853Z,20.45
2018-09-03T07:49:49.004Z,19.65
2018-09-03T07:52:16.125Z,21.45
2018-09-03T07:54:43.253Z,19.57
2018-09-03T07:57:10.388Z,19.40
2018-09-03T07:59:37.526Z,19.07
2018-09-03T08:02:05.135Z,18.32
2018-09-03T08:04:32.284Z,19.20
2018-09-03T08:06:59.443Z,19.80
2018-09-03T08:09:26.621Z,18.77
2018-09-03T08:11:53.785Z,18.75
2018-09-03T08:14:20.952Z,18.87
2018-09-03T08:16:48.073Z,19.27
2018-09-03T08:19:15.199Z,20.55
2018-09-03T08:21:42.333Z,20.95
2018-09-03T08:24:09.504Z,21.17
2018-09-03T08:26:36.648Z,19.85
2018-09-03T08:29:03.824Z,21.10
2018-09-03T08:31:31.012Z,21.15
2018-09-03T08:33:58.136Z,20.37
2018-09-03T08:36:25.285Z,20.40
2018-09-03T08:38:52.433Z,20.00
2018-09-03T08:41:19.556Z,18.95
2018-09-03T08:43:46.731Z,19.07
2018-09-03T08:46:14.369Z,20.52
2018-09-03T08:48:41.532Z,20.27
2018-09-03T08:51:08.694Z,19.75
2018-09-03T08:53:35.897Z,18.20
2018-09-03T08:56:03.117Z,19.85
2018-09-03T08:58:30.298Z,19.32
2018-09-03T09:00:57.438Z,19.02
2018-09-03T09:03:30.445Z,19.52
2018-09-03T09:05:57.586Z,21.25
2018-09-03T09:08:25.145Z,19.42
2018-09-03T09:10:52.255Z,19.32
2018-09-03T09:13:19.580Z,20.10
2018-09-03T09:15:46.748Z,19.87
2018-09-03T09:18:14.180Z,19.90
2018-09-03T09:20:41.424Z,19.73
2018-09-03T09:23:08.593Z,20.35
2018-09-03T09:25:35.857Z,20.02
2018-09-03T09:28:03.108Z,20.88
2018-09-03T09:30:30.264Z,21.93
2018-09-03T09:32:57.385Z,20.37
2018-09-03T09:35:24.539Z,20.60
2018-09-03T09:37:51.640Z,21.95
2018-09-03T09:40:18.796Z,21.93
2018-09-03T09:42:45.997Z,20.75
2018-09-03T09:45:13.184Z,21.95
2018-09-03T09:47:40.309Z,22.02
2018-09-03T09:50:07.444Z,21.35
2018-09-03T09:52:34.619Z,22.45
2018-09-03T09:55:01.967Z,20.70
2018-09-03T09:57:29.108Z,20.72
2018-09-03T09:59:56.236Z,22.15
2018-09-03T10:02:23.387Z,21.07
2018-09-03T10:04:50.551Z,21.35
2018-09-03T10:07:17.692Z,20.88
2018-09-03T10:09:44.878Z,19.80
2018-09-03T10:12:12.271Z,20.20
2018-09-03T10:14:39.441Z,19.50
2018-09-03T10:17:06.579Z,21.15
2018-09-03T10:19:33.705Z,19.20
2018-09-03T10:22:00.865Z,20.05
2018-09-03T10:24:27.994Z,19.87
2018-09-03T10:26:55.146Z,19.87
2018-09-03T10:29:22.313Z,18.77
2018-09-03T10:31:49.504Z,20.08
2018-09-03T10:34:16.629Z,20.00
2018-09-03T10:36:43.766Z,20.35
2018-09-03T10:39:10.932Z,20.08
2018-09-03T10:41:38.059Z,19.12
2018-09-03T10:44:05.320Z,19.45
2018-09-03T10:46:32.668Z,20.20
2018-09-03T10:48:59.793Z,20.72
2018-09-03T10:51:26.945Z,20.37
2018-09-03T10:53:54.069Z,20.80
2018-09-03T10:56:21.224Z,21.12
2018-09-03T10:58:48.345Z,20.27
2018-09-03T11:01:15.681Z,20.97
2018-09-03T11:03:42.848Z,20.17
2018-09-03T11:06:10.234Z,21.70
2018-09-03T11:08:37.344Z,21.20
2018-09-03T11:11:04.518Z,19.00
2018-09-03T11:13:31.665Z,18.90
2018-09-03T11:15:58.812Z,21.10
2018-09-03T11:18:27.469Z,19.60
2018-09-03T11:20:54.605Z,20.05
2018-09-03T11:23:21.760Z,17.60
2018-09-03T11:25:48.950Z,17.32
2018-09-03T11:28:16.154Z,20.05
2018-09-03T11:30:43.336Z,19.05
2018-09-03T11:33:10.480Z,18.35
2018-09-03T11:35:37.618Z,19.40
2018-09-03T11:38:04.759Z,20.35
2018-09-03T11:40:31.884Z,19.32
2018-09-03T11:42:59.032Z,18.85
2018-09-03T11:45:26.188Z,18.87
2018-09-03T11:47:53.317Z,17.42
2018-09-03T11:50:20.713Z,17.65
2018-09-03T11:52:47.890Z,18.27
2018-09-03T11:55:15.280Z,18.37
2018-09-03T11:57:42.738Z,17.67
2018-09-03T12:00:14.304Z,18.87
2018-09-03T12:02:41.480Z,18.57
2018-09-03T12:05:09.300Z,19.07
2018-09-03T12:07:36.496Z,18.00
2018-09-03T12:10:03.780Z,17.12
2018-09-03T12:12:30.964Z,20.10
2018-09-03T12:15:01.198Z,17.90
2018-09-03T12:17:28.320Z,19.32
2018-09-03T12:19:55.440Z,19.37
2018-09-03T12:22:22.584Z,19.98
2018-09-03T12:24:49.701Z,19.48
2018-09-03T12:27:16.848Z,20.35
2018-09-03T12:29:43.967Z,19.40
2018-09-03T12:32:11.376Z,20.72
2018-09-03T12:34:38.520Z,20.97
2018-09-03T12:37:05.721Z,21.37
2018-09-03T12:39:32.838Z,22.87
2018-09-03T12:41:59.997Z,22.45
2018-09-03T12:44:27.147Z,20.90
2018-09-03T12:46:54.258Z,21.33
2018-09-03T12:49:21.400Z,23.62
2018-09-03T12:51:48.556Z,23.75
2018-09-03T12:54:15.676Z,24.02
2018-09-03T12:56:42.840Z,24.77
2018-09-03T12:59:09.958Z,24.47
2018-09-03T13:01:37.108Z,24.45
2018-09-03T13:04:04.302Z,24.82
2018-09-03T13:06:31.472Z,22.98
2018-09-03T13:08:58.611Z,22.25
2018-09-03T13:11:25.745Z,21.90
2018-09-03T13:13:52.904Z,20.17
2018-09-03T13:16:20.030Z,20.97
2018-09-03T13:18:47.346Z,19.32
2018-09-03T13:21:14.452Z,19.32
2018-09-03T13:23:41.943Z,18.00
2018-09-03T13:26:09.108Z,18.75
2018-09-03T13:28:36.253Z,17.95
2018-09-03T13:31:03.420Z,17.95
2018-09-03T13:33:30.589Z,19.55
2018-09-03T13:35:57.750Z,17.07
2018-09-03T13:38:24.882Z,17.85
2018-09-03T13:40:52.077Z,17.65
2018-09-03T13:43:19.217Z,16.73
2018-09-03T13:45:46.357Z,16.00
2018-09-03T13:48:13.562Z,16.95
2018-09-03T13:50:40.699Z,17.73
2018-09-03T13:53:07.833Z,16.05
2018-09-03T13:55:35.023Z,16.55
2018-09-03T13:58:02.213Z,17.05
2018-09-03T14:00:29.360Z,15.28
2018-09-03T14:02:56.520Z,15.30
2018-09-03T14:05:23.692Z,15.32
2018-09-03T14:07:50.856Z,15.78
2018-09-03T14:10:17.973Z,15.20
2018-09-03T14:12:46.906Z,16.97
2018-09-03T14:15:14.049Z,16.42
2018-09-03T14:17:41.235Z,16.23
2018-09-03T14:20:08.571Z,16.82
2018-09-03T14:22:35.654Z,16.07
2018-09-03T14:25:02.821Z,17.98
2018-09-03T14:27:29.962Z,16.95
2018-09-03T14:29:57.120Z,17.92
2018-09-03T14:32:24.269Z,18.65
2018-09-03T14:34:51.427Z,18.27
2018-09-03T14:37:18.620Z,18.15
2018-09-03T14:39:45.813Z,20.62
2018-09-03T14:42:12.960Z,20.97
2018-09-03T14:44:40.149Z,18.67
2018-09-03T14:47:07.322Z,18.35
2018-09-03T14:49:34.567Z,18.87
2018-09-03T14:52:01.642Z,17.85
2018-09-03T14:54:28.787Z,18.15
2018-09-03T14:56:55.955Z,17.57
2018-09-03T14:59:23.116Z,16.82
2018-09-03T15:01:50.227Z,16.73
2018-09-03T15:04:17.574Z,17.02
2018-09-03T15:06:44.589Z,17.37
2018-09-03T15:09:11.926Z,17.32
2018-09-03T15:11:39.384Z,16.90
2018-09-03T15:14:06.568Z,16.15
2018-09-03T15:16:34.184Z,16.62
2018-09-03T15:19:02.774Z,17.02
2018-09-03T15:21:29.977Z,17.48
2018-09-03T15:23:57.116Z,18.17
2018-09-03T15:26:24.278Z,16.77
2018-09-03T15:28:51.780Z,18.70
2018-09-03T15:31:18.947Z,17.05
2018-09-03T15:33:46.072Z,16.17
2018-09-03T15:36:13.428Z,16.65
2018-09-03T15:38:40.573Z,16.80
2018-09-03T15:41:08.144Z,17.40
2018-09-03T15:43:35.264Z,18.30
2018-09-03T15:46:02.425Z,19.35
2018-09-03T15:48:29.772Z,18.67
2018-09-03T15:50:56.893Z,17.12
2018-09-03T15:53:24.745Z,18.80
2018-09-03T15:55:51.926Z,18.35
2018-09-03T15:58:19.092Z,18.90
2018-09-03T16:00:46.308Z,18.45
2018-09-03T16:03:13.453Z,18.55
2018-09-03T16:05:40.612Z,18.87
2018-09-03T16:08:07.792Z,19.12
2018-09-03T16:10:34.940Z,18.70
2018-09-03T16:13:02.056Z,17.85
2018-09-03T16:15:29.184Z,19.65
2018-09-03T16:17:56.348Z,18.57
2018-09-03T16:20:23.514Z,17.42
2018-09-03T16:22:50.659Z,18.10
2018-09-03T16:25:17.894Z,18.80
2018-09-03T16:27:45.125Z,17.55
2018-09-03T16:30:12.228Z,17.70
2018-09-03T16:32:39.353Z,18.02
2018-09-03T16:35:06.541Z,17.95
2018-09-03T16:37:33.717Z,19.85
2018-09-03T16:40:00.888Z,18.35
2018-09-03T16:42:28.039Z,20.35
2018-09-03T16:44:55.176Z,18.65
2018-09-03T16:47:22.321Z,18.95
2018-09-03T16:49:49.521Z,18.20
2018-09-03T16:52:16.748Z,20.15
2018-09-03T16:54:43.876Z,18.37
2018-09-03T16:57:11.041Z,19.27
2018-09-03T16:59:38.176Z,18.90
2018-09-03T17:02:05.364Z,18.77
2018-09-03T17:04:32.548Z,18.30
2018-09-03T17:06:59.708Z,19.67
2018-09-03T17:09:26.868Z,18.73
2018-09-03T17:11:54.021Z,20.50
2018-09-03T17:14:21.204Z,20.45
2018-09-03T17:16:48.354Z,18.67
2018-09-03T17:19:15.513Z,19.45
2018-09-03T17:21:42.672Z,20.97
2018-09-03T17:24:09.796Z,19.90
2018-09-03T17:26:36.948Z,20.05
2018-09-03T17:29:04.209Z,19.48
2018-09-03T17:31:31.368Z,20.05
2018-09-03T17:33:58.524Z,20.88
2018-09-03T17:36:25.669Z,20.15
2018-09-03T17:38:52.824Z,21.80
2018-09-03T17:41:19.980Z,20.75
2018-09-03T17:43:47.246Z,20.10
2018-09-03T17:46:14.412Z,18.80
2018-09-03T17:48:41.604Z,15.95
2018-09-03T17:51:08.772Z,17.67
2018-09-03T17:53:35.915Z,18.02
2018-09-03T17:56:03.092Z,17.50
2018-09-03T17:58:30.269Z,16.25
2018-09-03T18:00:57.445Z,17.57
2018-09-03T18:03:24.644Z,18.32
2018-09-03T18:05:51.817Z,17.65
2018-09-03T18:08:19.047Z,18.32
2018-09-03T18:10:46.203Z,18.62
2018-09-03T18:13:13.376Z,19.42
2018-09-03T18:15:40.532Z,19.70
2018-09-03T18:18:07.817Z,18.42
2018-09-03T18:20:34.973Z,17.90
2018-09-03T18:23:02.156Z,18.37
2018-09-03T18:25:29.402Z,18.70
2018-09-03T18:27:56.577Z,21.12
2018-09-03T18:30:23.830Z,20.12
2018-09-03T18:32:50.991Z,20.05
2018-09-03T18:35:18.264Z,19.75
2018-09-03T18:37:45.385Z,20.12
2018-09-03T18:40:12.583Z,20.77
2018-09-03T18:42:39.720Z,20.88
2018-09-03T18:45:07.390Z,20.82
2018-09-03T18:47:34.638Z,21.15
2018-09-03T18:50:01.747Z,20.17
2018-09-03T18:52:29.164Z,20.43
2018-09-03T18:54:56.292Z,19.95
2018-09-03T18:57:23.466Z,20.77
2018-09-03T18:59:50.692Z,19.37
2018-09-03T19:02:17.848Z,18.90
2018-09-03T19:04:45.005Z,18.60
2018-09-03T19:07:12.125Z,20.68
2018-09-03T19:09:39.442Z,19.92
2018-09-03T19:12:06.565Z,18.32
2018-09-03T19:14:33.896Z,19.42
2018-09-03T19:17:01.057Z,20.17
2018-09-03T19:19:28.388Z,18.95
2018-09-03T19:21:55.666Z,19.92
2018-09-03T19:24:22.845Z,19.42
2018-09-03T19:26:49.964Z,18.52
2018-09-03T19:29:17.210Z,18.82
2018-09-03T19:31:44.364Z,19.82
2018-09-03T19:34:11.675Z,19.65
2018-09-03T19:36:38.882Z,23.47
2018-09-03T19:39:06.003Z,25.25
2018-09-03T19:41:33.288Z,21.20
2018-09-03T19:44:00.447Z,21.85
2018-09-03T19:46:27.616Z,21.93
2018-09-03T19:48:54.790Z,21.07
2018-09-03T19:51:22.160Z,22.45
2018-09-03T19:53:49.283Z,21.30
2018-09-03T19:56:16.421Z,21.82
2018-09-03T19:58:43.556Z,20.55
2018-09-03T20:01:10.704Z,20.80
2018-09-03T20:03:37.829Z,20.30
2018-09-03T20:06:05.004Z,20.95
2018-09-03T20:08:32.861Z,20.55
2018-09-03T20:11:00.046Z,21.10
2018-09-03T20:13:27.193Z,20.15
2018-09-03T20:15:54.402Z,20.75
2018-09-03T20:18:21.569Z,19.40
2018-09-03T20:20:48.720Z,18.62
2018-09-03T20:23:15.869Z,18.95
2018-09-03T20:25:43.022Z,17.52
2018-09-03T20:28:10.137Z,17.17
2018-09-03T20:30:37.363Z,18.05
2018-09-03T20:33:04.537Z,15.38
2018-09-03T20:35:31.695Z,17.30
2018-09-03T20:37:58.866Z,16.70
2018-09-03T20:40:26.022Z,17.77
2018-09-03T20:42:53.320Z,17.05
2018-09-03T20:45:20.630Z,16.45
2018-09-03T20:47:47.983Z,18.42
2018-09-03T20:50:15.121Z,16.55
2018-09-03T20:52:42.243Z,18.20
2018-09-03T20:55:09.433Z,17.92
2018-09-03T20:57:36.595Z,17.48
2018-09-03T21:00:04.613Z,17.15
2018-09-03T21:02:31.748Z,18.60
2018-09-03T21:04:58.944Z,17.70
2018-09-03T21:07:26.113Z,18.48
2018-09-03T21:09:53.237Z,16.45
2018-09-03T21:12:20.388Z,18.15
2018-09-03T21:14:47.512Z,18.67
2018-09-03T21:17:14.656Z,18.82
2018-09-03T21:19:41.809Z,20.07
2018-09-03T21:22:08.952Z,18.03
2018-09-03T21:24:36.100Z,19.57
2018-09-03T21:27:03.622Z,18.60
2018-09-03T21:29:30.869Z,16.95
2018-09-03T21:31:58.054Z,18.77
2018-09-03T21:34:25.168Z,19.15
2018-09-03T21:36:52.346Z,18.37
2018-09-03T21:39:19.481Z,19.00
2018-09-03T21:41:46.663Z,19.75
2018-09-03T21:44:13.837Z,18.57
2018-09-03T21:46:41.039Z,18.57
2018-09-03T21:49:08.376Z,17.48
2018-09-03T21:51:35.513Z,18.65
2018-09-03T21:54:02.693Z,16.45
2018-09-03T21:56:29.859Z,18.10
2018-09-03T21:58:57.012Z,18.93
2018-09-03T22:01:24.208Z,18.27
2018-09-03T22:03:51.315Z,19.03
2018-09-03T22:06:18.488Z,17.73
2018-09-03T22:08:45.628Z,19.10
2018-09-03T22:11:12.813Z,19.37
2018-09-03T22:13:39.921Z,19.13
2018-09-03T22:16:07.919Z,18.80
2018-09-03T22:18:35.530Z,19.47
2018-09-03T22:21:02.724Z,19.03
2018-09-03T22:23:29.887Z,19.12
2018-09-03T22:25:57.056Z,18.80
2018-09-03T22:28:24.176Z,19.07
2018-09-03T22:30:51.313Z,17.97
2018-09-03T22:33:18.453Z,18.57
2018-09-03T22:35:45.592Z,17.85
2018-09-03T22:38:12.996Z,17.90
2018-09-03T22:40:40.116Z,17.48
2018-09-03T22:43:07.263Z,19.63
2018-09-03T22:45:34.445Z,18.87
2018-09-03T22:48:01.613Z,19.63
2018-09-03T22:50:28.760Z,19.27
2018-09-03T22:52:55.904Z,19.93
2018-09-03T22:55:23.044Z,18.80
2018-09-03T22:57:50.204Z,19.50
2018-09-03T23:00:17.351Z,18.83
2018-09-03T23:02:46.127Z,19.32
2018-09-03T23:05:13.268Z,21.00
2018-09-03T23:07:40.416Z,19.73
2018-09-03T23:10:07.894Z,19.73
2018-09-03T23:12:35.109Z,19.63
2018-09-03T23:15:02.301Z,19.53
2018-09-03T23:17:29.473Z,18.30
2018-09-03T23:19:56.628Z,20.20
2018-09-03T23:22:23.744Z,21.17
2018-09-03T23:24:50.883Z,20.15
2018-09-03T23:27:18.009Z,19.25
2018-09-03T23:29:45.180Z,20.52
2018-09-03T23:32:12.336Z,21.48
2018-09-03T23:34:39.488Z,20.37
2018-09-03T23:37:06.666Z,20.03
2018-09-03T23:39:33.814Z,22.35
2018-09-03T23:42:00.979Z,22.07
2018-09-03T23:44:28.097Z,21.82
2018-09-03T23:46:55.220Z,21.57
2018-09-03T23:49:22.363Z,22.15
2018-09-03T23:51:49.508Z,23.50
2018-09-03T23:54:16.651Z,21.87
2018-09-03T23:56:43.780Z,23.63
2018-09-03T23:59:10.956Z,23.27
